Time;durP1;ratioP1;P1;durP2;ratioP2;P2;SDS_P1;SDS_P2;PMS_P1;PMS_P2;Temp;Humidity;BMP_temperature;BMP_pressure;BME280_temperature;BME280_humidity;BME280_pressure;Samples;Min_cycle;Max_cycle;Signal;HPM_P1;HPM_P2
2023/11/23 00:01:36;;;;;;;18.20;13.50;;;5.60;99.90;;;;;;5041007;28;20980;-59
2023/11/23 00:04:05;;;;;;;17.80;13.73;;;5.70;99.90;;;;;;5041593;28;20520;-60
2023/11/23 00:06:33;;;;;;;18.30;14.67;;;5.70;99.90;;;;;;5036562;28;20471;-60
2023/11/23 00:09:01;;;;;;;16.53;12.87;;;5.70;99.90;;;;;;5039815;28;21023;-60
2023/11/23 00:11:29;;;;;;;17.43;13.63;;;5.80;99.90;;;;;;5039540;28;20494;-60
2023/11/23 00:13:58;;;;;;;18.77;13.80;;;5.80;99.90;;;;;;5038215;28;20964;-60
2023/11/23 00:16:26;;;;;;;22.03;14.03;;;5.80;99.90;;;;;;5039360;28;20466;-58
2023/11/23 00:18:54;;;;;;;19.30;13.90;;;5.90;99.90;;;;;;5039019;28;20552;-60
2023/11/23 00:21:22;;;;;;;18.83;14.03;;;5.90;99.90;;;;;;5036813;28;20544;-58
2023/11/23 00:23:50;;;;;;;17.93;14.13;;;6.00;99.90;;;;;;5040958;28;20486;-60
2023/11/23 00:26:18;;;;;;;19.90;15.10;;;6.10;99.90;;;;;;5039954;28;20471;-60
2023/11/23 00:28:46;;;;;;;16.03;13.00;;;6.10;99.90;;;;;;5037515;28;20485;-60
2023/11/23 00:31:16;;;;;;;17.87;13.53;;;6.10;99.90;;;;;;5036596;28;20470;-58
2023/11/23 00:33:44;;;;;;;16.93;13.33;;;6.10;99.90;;;;;;5040765;28;20522;-60
2023/11/23 00:36:13;;;;;;;17.60;13.27;;;6.10;99.90;;;;;;5038787;28;20485;-59
2023/11/23 00:38:41;;;;;;;19.47;13.27;;;6.20;99.90;;;;;;5040599;28;20944;-59
2023/11/23 00:41:09;;;;;;;17.40;12.90;;;6.20;99.90;;;;;;5038423;28;20547;-59
2023/11/23 00:43:37;;;;;;;16.93;12.90;;;6.20;99.90;;;;;;5036099;28;20576;-60
2023/11/23 00:46:06;;;;;;;17.50;13.70;;;6.30;99.90;;;;;;5035306;28;20473;-60
2023/11/23 00:48:35;;;;;;;20.13;13.10;;;6.30;99.90;;;;;;5039346;28;20538;-60
2023/11/23 00:51:04;;;;;;;19.10;13.73;;;6.30;99.90;;;;;;5038768;28;20470;-58
2023/11/23 00:53:32;;;;;;;16.73;13.20;;;6.30;99.90;;;;;;5037173;28;21026;-60
2023/11/23 00:56:01;;;;;;;20.03;14.77;;;6.40;99.90;;;;;;5036378;28;20489;-60
2023/11/23 00:58:29;;;;;;;16.37;12.87;;;6.40;99.90;;;;;;5037439;28;20558;-59
2023/11/23 01:00:57;;;;;;;17.47;14.43;;;6.50;99.90;;;;;;5036799;28;20564;-58
2023/11/23 01:03:26;;;;;;;15.83;12.80;;;6.50;99.90;;;;;;5038431;28;20499;-60
2023/11/23 01:05:55;;;;;;;17.20;12.70;;;6.60;99.90;;;;;;5039528;28;20477;-59
2023/11/23 01:08:23;;;;;;;17.00;13.20;;;6.60;99.90;;;;;;5040045;28;21385;-60
2023/11/23 01:10:52;;;;;;;14.97;11.83;;;6.70;99.90;;;;;;5040319;28;20555;-59
2023/11/23 01:13:20;;;;;;;17.43;13.00;;;6.70;99.90;;;;;;5039145;28;20491;-60
2023/11/23 01:15:48;;;;;;;19.73;14.03;;;6.80;99.90;;;;;;5035506;28;20472;-60
2023/11/23 01:18:16;;;;;;;19.47;13.57;;;6.80;99.90;;;;;;5036872;28;20573;-60
2023/11/23 01:20:45;;;;;;;17.30;12.47;;;6.90;99.90;;;;;;5040456;28;20485;-60
2023/11/23 01:23:14;;;;;;;18.47;13.90;;;7.00;99.90;;;;;;5038914;28;20850;-59
2023/11/23 01:25:42;;;;;;;18.67;14.10;;;7.00;99.90;;;;;;5039687;28;20558;-60
2023/11/23 01:28:10;;;;;;;18.20;13.77;;;7.00;99.90;;;;;;5040454;28;20581;-59
2023/11/23 01:30:38;;;;;;;18.60;13.87;;;7.00;99.90;;;;;;5039215;28;21313;-60
2023/11/23 01:33:07;;;;;;;18.27;14.40;;;7.10;99.90;;;;;;5038102;28;20520;-59
2023/11/23 01:35:35;;;;;;;20.40;14.63;;;7.10;99.90;;;;;;5040337;28;20467;-60
2023/11/23 01:38:03;;;;;;;21.83;14.83;;;7.10;99.90;;;;;;5038769;28;20590;-60
2023/11/23 01:40:33;;;;;;;20.63;14.83;;;7.10;99.90;;;;;;5040605;28;20467;-60
2023/11/23 01:43:02;;;;;;;19.50;14.47;;;7.10;99.90;;;;;;5040821;28;20635;-60
2023/11/23 01:45:30;;;;;;;20.07;15.80;;;7.20;99.90;;;;;;5035586;28;20477;-60
2023/11/23 01:47:58;;;;;;;20.50;14.57;;;7.20;99.90;;;;;;5037298;28;20519;-60
2023/11/23 01:50:26;;;;;;;18.33;13.70;;;7.10;99.90;;;;;;5037490;28;20478;-59
2023/11/23 01:52:54;;;;;;;18.43;14.67;;;7.20;99.90;;;;;;5038373;28;20494;-60
2023/11/23 01:55:23;;;;;;;20.87;15.30;;;7.20;99.90;;;;;;5038274;28;20572;-59
2023/11/23 01:57:56;;;;;;;16.70;13.67;;;7.30;99.90;;;;;;5038654;28;21054;-60
2023/11/23 02:00:25;;;;;;;24.73;16.23;;;7.30;99.90;;;;;;5038006;28;20510;-59
2023/11/23 02:02:53;;;;;;;22.73;14.70;;;7.30;99.90;;;;;;5039856;28;20580;-60
2023/11/23 02:05:23;;;;;;;19.77;15.13;;;7.30;99.90;;;;;;5037889;28;20466;-60
2023/11/23 02:07:51;;;;;;;20.87;14.77;;;7.30;99.90;;;;;;5037655;28;21130;-60
2023/11/23 02:10:19;;;;;;;21.70;14.87;;;7.30;99.90;;;;;;5037418;28;20471;-60
2023/11/23 02:12:48;;;;;;;20.10;15.40;;;7.30;99.90;;;;;;5038076;28;20495;-60
2023/11/23 02:15:17;;;;;;;19.63;15.17;;;7.30;99.90;;;;;;5036909;28;20466;-60
2023/11/23 02:17:46;;;;;;;18.67;14.47;;;7.30;99.90;;;;;;5035641;28;20571;-60
2023/11/23 02:20:14;;;;;;;20.33;15.07;;;7.40;99.90;;;;;;5036470;28;20481;-60
2023/11/23 02:22:42;;;;;;;19.13;14.50;;;7.40;99.90;;;;;;5033408;28;20546;-60
2023/11/23 02:25:12;;;;;;;19.70;14.13;;;7.40;99.90;;;;;;5038240;28;20954;-60
2023/11/23 02:27:42;;;;;;;20.13;14.80;;;7.50;99.90;;;;;;5038387;28;21181;-60
2023/11/23 02:30:11;;;;;;;18.17;13.53;;;7.50;99.90;;;;;;5037640;28;20481;-60
2023/11/23 02:32:39;;;;;;;17.67;13.70;;;7.50;99.90;;;;;;5037806;28;20462;-60
2023/11/23 02:35:07;;;;;;;19.00;14.33;;;7.50;99.90;;;;;;5037520;28;20544;-60
2023/11/23 02:37:35;;;;;;;18.97;14.23;;;7.60;99.90;;;;;;5039665;28;20570;-60
2023/11/23 02:40:05;;;;;;;21.40;15.27;;;7.60;99.90;;;;;;5037605;28;20553;-60
2023/11/23 02:42:35;;;;;;;20.23;14.57;;;7.70;99.90;;;;;;5034133;28;20553;-59
2023/11/23 02:45:03;;;;;;;19.70;15.30;;;7.70;99.90;;;;;;5038917;28;20559;-60
2023/11/23 02:47:31;;;;;;;20.33;14.80;;;7.80;99.90;;;;;;5035110;28;20898;-60
2023/11/23 02:49:59;;;;;;;20.77;14.73;;;7.70;99.90;;;;;;5037738;28;20881;-59
2023/11/23 02:52:27;;;;;;;22.10;15.20;;;7.80;99.90;;;;;;5034645;28;20478;-60
2023/11/23 02:54:56;;;;;;;19.10;14.90;;;7.80;99.90;;;;;;5037032;28;20589;-60
2023/11/23 02:57:24;;;;;;;22.03;16.83;;;7.80;99.90;;;;;;5037123;28;20499;-60
2023/11/23 02:59:54;;;;;;;18.03;14.40;;;7.80;99.90;;;;;;5035417;28;20972;-59
2023/11/23 03:02:22;;;;;;;19.20;15.40;;;7.80;99.90;;;;;;5035057;28;20481;-60
2023/11/23 03:04:50;;;;;;;23.33;15.63;;;7.90;99.90;;;;;;5037057;28;20467;-60
2023/11/23 03:07:18;;;;;;;19.37;14.50;;;7.90;99.90;;;;;;5037344;28;20510;-60
2023/11/23 03:09:46;;;;;;;20.93;15.30;;;7.90;99.90;;;;;;5035509;28;20565;-60
2023/11/23 03:12:14;;;;;;;23.03;16.83;;;7.90;99.90;;;;;;5040554;28;20919;-60
2023/11/23 03:14:42;;;;;;;22.80;15.20;;;7.90;99.90;;;;;;5038049;28;20581;-60
2023/11/23 03:17:11;;;;;;;18.37;15.80;;;8.00;99.90;;;;;;5034532;28;20470;-60
2023/11/23 03:19:39;;;;;;;21.27;16.57;;;7.90;99.90;;;;;;5035373;28;20470;-60
2023/11/23 03:22:08;;;;;;;20.30;15.90;;;8.00;99.90;;;;;;5036734;28;20964;-60
2023/11/23 03:24:36;;;;;;;18.50;14.67;;;8.00;99.90;;;;;;5038861;28;24119;-60
2023/11/23 03:27:04;;;;;;;23.23;15.90;;;8.00;99.90;;;;;;5037291;28;20471;-60
2023/11/23 03:29:33;;;;;;;18.27;14.20;;;8.10;99.90;;;;;;5036180;28;20553;-60
2023/11/23 03:32:02;;;;;;;19.60;15.03;;;8.10;99.90;;;;;;5030929;28;20478;-59
2023/11/23 03:34:31;;;;;;;19.43;14.70;;;8.10;99.90;;;;;;5038131;28;20883;-60
2023/11/23 03:36:59;;;;;;;22.13;15.23;;;8.10;99.90;;;;;;5036849;28;20466;-59
2023/11/23 03:39:27;;;;;;;18.87;14.27;;;8.10;99.90;;;;;;5037065;28;21255;-60
2023/11/23 03:41:55;;;;;;;19.70;14.30;;;8.20;99.90;;;;;;5036336;28;21053;-60
2023/11/23 03:44:23;;;;;;;19.70;14.63;;;8.20;99.90;;;;;;5041900;28;20493;-60
2023/11/23 03:46:52;;;;;;;19.43;14.07;;;8.20;99.90;;;;;;5038832;28;20566;-61
2023/11/23 03:49:20;;;;;;;16.60;13.90;;;8.20;99.90;;;;;;5043857;28;20486;-60
2023/11/23 03:51:49;;;;;;;18.30;13.30;;;8.20;99.90;;;;;;5040274;28;20505;-60
2023/11/23 03:54:17;;;;;;;16.50;13.00;;;8.30;99.90;;;;;;5040106;28;21022;-60
2023/11/23 03:56:46;;;;;;;19.33;14.27;;;8.30;99.90;;;;;;5041663;28;23407;-59
2023/11/23 03:59:14;;;;;;;17.50;14.43;;;8.30;99.90;;;;;;5040254;28;20566;-60
2023/11/23 04:01:46;;;;;;;15.93;12.40;;;8.30;99.90;;;;;;5037270;28;20554;-60
2023/11/23 04:04:14;;;;;;;16.30;12.53;;;8.30;99.90;;;;;;5040488;28;20493;-60
2023/11/23 04:06:43;;;;;;;17.00;13.07;;;8.30;99.90;;;;;;5039523;28;20524;-60
2023/11/23 04:09:13;;;;;;;17.30;13.17;;;8.40;99.90;;;;;;5040552;28;20561;-60
2023/11/23 04:11:42;;;;;;;17.90;13.27;;;8.40;99.90;;;;;;5042112;28;20953;-60
2023/11/23 04:14:10;;;;;;;17.30;12.73;;;8.40;99.90;;;;;;5040174;28;20524;-59
2023/11/23 04:16:38;;;;;;;18.30;13.10;;;8.40;99.90;;;;;;5040371;28;20475;-60
2023/11/23 04:19:06;;;;;;;15.30;12.77;;;8.40;99.90;;;;;;5037820;28;21036;-60
2023/11/23 04:21:34;;;;;;;17.27;13.50;;;8.50;99.90;;;;;;5041038;28;20467;-59
2023/11/23 04:24:02;;;;;;;16.40;12.87;;;8.40;99.90;;;;;;5041053;28;20590;-59
2023/11/23 04:26:32;;;;;;;14.17;12.20;;;8.50;99.90;;;;;;5041877;28;20474;-60
2023/11/23 04:29:00;;;;;;;18.23;13.30;;;8.50;99.90;;;;;;5041407;28;21064;-60
2023/11/23 04:31:27;;;;;;;16.83;12.50;;;8.50;99.90;;;;;;5040488;28;20477;-60
2023/11/23 04:33:55;;;;;;;16.03;12.43;;;8.50;99.90;;;;;;5039310;28;20490;-60
2023/11/23 04:36:23;;;;;;;16.70;13.10;;;8.60;99.90;;;;;;5039403;28;20495;-60
2023/11/23 04:38:51;;;;;;;18.47;13.83;;;8.60;99.90;;;;;;5037292;28;20479;-59
2023/11/23 04:41:19;;;;;;;18.50;13.17;;;8.60;99.90;;;;;;5039502;28;20473;-60
2023/11/23 04:43:49;;;;;;;16.57;13.10;;;8.70;99.90;;;;;;5041491;28;20490;-60
2023/11/23 04:46:17;;;;;;;17.73;13.33;;;8.70;99.90;;;;;;5034045;28;20544;-59
2023/11/23 04:48:47;;;;;;;16.20;12.20;;;8.70;99.90;;;;;;5038786;28;20482;-60
2023/11/23 04:51:16;;;;;;;18.90;12.30;;;8.70;99.90;;;;;;5041043;28;20481;-60
2023/11/23 04:53:44;;;;;;;19.10;12.80;;;8.80;99.90;;;;;;5039298;28;20482;-60
2023/11/23 04:56:13;;;;;;;17.70;12.43;;;8.80;99.90;;;;;;5038366;28;20467;-59
2023/11/23 04:58:40;;;;;;;18.00;13.10;;;8.80;99.90;;;;;;5038539;28;20496;-60
2023/11/23 05:01:10;;;;;;;17.40;13.30;;;8.90;99.90;;;;;;5039710;28;20462;-60
2023/11/23 05:03:38;;;;;;;14.97;11.97;;;8.90;99.90;;;;;;5034480;28;21098;-60
2023/11/23 05:06:08;;;;;;;15.70;12.07;;;8.90;99.90;;;;;;5035906;28;20927;-60
2023/11/23 05:08:39;;;;;;;16.97;13.10;;;8.90;99.90;;;;;;5038718;28;20557;-60
2023/11/23 05:11:07;;;;;;;17.33;13.37;;;8.90;99.90;;;;;;5038530;28;20561;-60
2023/11/23 05:13:35;;;;;;;16.33;11.67;;;9.00;99.90;;;;;;5038298;28;21252;-60
2023/11/23 05:16:03;;;;;;;17.57;13.37;;;9.00;99.90;;;;;;5037966;28;20483;-60
2023/11/23 05:18:32;;;;;;;16.23;12.20;;;9.00;99.90;;;;;;5033711;28;20906;-60
2023/11/23 05:21:01;;;;;;;16.40;11.50;;;9.00;99.90;;;;;;5038902;28;20474;-60
2023/11/23 05:23:28;;;;;;;16.27;12.37;;;9.10;99.90;;;;;;5039139;28;21093;-60
2023/11/23 05:25:57;;;;;;;15.67;11.77;;;9.10;99.90;;;;;;5039918;28;20470;-59
2023/11/23 05:28:25;;;;;;;19.60;11.53;;;9.10;99.90;;;;;;5037904;28;20466;-59
2023/11/23 05:30:53;;;;;;;17.27;12.00;;;9.20;99.90;;;;;;5039222;28;20482;-60
2023/11/23 05:33:21;;;;;;;14.40;9.77;;;9.20;99.90;;;;;;5038908;28;20494;-60
2023/11/23 05:35:54;;;;;;;16.57;11.87;;;9.30;99.90;;;;;;5034063;28;20541;-60
2023/11/23 05:38:22;;;;;;;16.30;10.30;;;9.40;99.90;;;;;;5037605;28;20480;-60
2023/11/23 05:40:50;;;;;;;17.10;9.77;;;9.40;99.90;;;;;;5039098;28;20483;-60
2023/11/23 05:43:18;;;;;;;14.97;8.97;;;9.40;99.90;;;;;;5036226;28;20490;-60
2023/11/23 05:45:47;;;;;;;13.77;8.80;;;9.50;99.90;;;;;;5037729;28;20988;-60
2023/11/23 05:48:15;;;;;;;14.50;8.87;;;9.50;99.90;;;;;;5040263;28;20506;-60
2023/11/23 05:50:43;;;;;;;15.97;7.73;;;9.50;99.90;;;;;;5040662;28;20463;-60
2023/11/23 05:53:13;;;;;;;9.57;7.47;;;9.60;99.90;;;;;;5037705;28;20518;-60
2023/11/23 05:55:41;;;;;;;14.60;7.90;;;9.70;99.90;;;;;;5035995;28;20491;-60
2023/11/23 05:58:09;;;;;;;18.27;7.23;;;9.70;99.90;;;;;;5039499;28;20521;-59
2023/11/23 06:00:37;;;;;;;12.13;7.03;;;9.80;99.90;;;;;;5041138;28;20490;-60
2023/11/23 06:03:05;;;;;;;12.20;7.47;;;9.80;99.90;;;;;;5040421;28;20574;-60
2023/11/23 06:05:33;;;;;;;8.63;6.60;;;9.80;99.90;;;;;;5035315;28;20470;-60
2023/11/23 06:08:01;;;;;;;8.80;6.37;;;9.80;99.90;;;;;;5038647;28;20575;-60
2023/11/23 06:10:33;;;;;;;9.57;6.13;;;9.80;99.90;;;;;;5040607;28;20466;-60
2023/11/23 06:13:02;;;;;;;6.77;5.97;;;9.90;99.90;;;;;;5039291;28;21071;-60
2023/11/23 06:15:30;;;;;;;11.67;6.33;;;9.90;99.90;;;;;;5040078;28;20573;-59
2023/11/23 06:17:58;;;;;;;9.60;6.17;;;9.90;99.90;;;;;;5033019;28;20490;-60
2023/11/23 06:20:40;;;;;;;9.53;5.90;;;9.90;99.90;;;;;;5034115;28;20558;-59
2023/11/23 06:23:09;;;;;;;8.03;5.50;;;9.90;99.90;;;;;;5037737;28;20631;-61
2023/11/23 06:25:39;;;;;;;10.77;6.03;;;10.00;99.90;;;;;;5034957;28;20472;-61
2023/11/23 06:28:07;;;;;;;8.43;5.53;;;10.00;99.90;;;;;;5032502;28;20500;-60
2023/11/23 06:30:44;;;;;;;9.43;5.20;;;10.00;99.90;;;;;;5035771;28;20559;-60
2023/11/23 06:33:13;;;;;;;11.13;5.77;;;10.10;99.90;;;;;;5036496;28;20500;-61
2023/11/23 06:35:41;;;;;;;9.87;5.17;;;10.10;99.90;;;;;;5032706;28;20497;-59
2023/11/23 06:38:09;;;;;;;8.23;5.97;;;10.10;99.90;;;;;;5035262;28;20525;-60
2023/11/23 06:40:39;;;;;;;13.20;4.80;;;10.10;99.90;;;;;;5031340;28;20561;-60
2023/11/23 06:43:07;;;;;;;10.33;5.67;;;10.10;99.90;;;;;;5028059;28;20537;-60
2023/11/23 06:45:35;;;;;;;10.40;5.63;;;10.10;99.90;;;;;;5036438;28;20473;-61
2023/11/23 06:48:03;;;;;;;10.53;4.90;;;10.10;99.90;;;;;;5028904;28;20570;-61
2023/11/23 06:50:32;;;;;;;15.17;6.90;;;10.10;99.90;;;;;;5029331;28;20463;-61
2023/11/23 06:53:00;;;;;;;10.10;4.90;;;10.20;99.90;;;;;;5028996;28;20596;-60
2023/11/23 06:55:28;;;;;;;9.53;4.77;;;10.20;99.90;;;;;;5036088;28;20995;-61
2023/11/23 06:57:57;;;;;;;12.30;5.10;;;10.20;99.90;;;;;;5037560;28;20467;-61
2023/11/23 07:00:25;;;;;;;9.83;4.40;;;10.20;99.90;;;;;;5037757;28;20554;-60
2023/11/23 07:02:56;;;;;;;6.83;4.83;;;10.30;99.90;;;;;;5036124;28;21195;-60
2023/11/23 07:05:26;;;;;;;8.23;4.70;;;10.30;99.90;;;;;;5039046;28;20465;-60
2023/11/23 07:07:55;;;;;;;9.93;4.60;;;10.30;99.90;;;;;;5034398;28;20510;-61
2023/11/23 07:10:23;;;;;;;10.00;4.13;;;10.20;99.90;;;;;;5037856;28;21287;-61
2023/11/23 07:12:51;;;;;;;7.17;4.57;;;10.30;99.90;;;;;;5036943;28;20590;-61
2023/11/23 07:15:23;;;;;;;11.63;5.00;;;10.30;99.90;;;;;;5037680;28;20517;-60
2023/11/23 07:17:52;;;;;;;9.20;4.20;;;10.30;99.90;;;;;;5038814;28;20480;-61
2023/11/23 07:20:20;;;;;;;7.70;4.07;;;10.40;99.90;;;;;;5042481;28;20939;-61
2023/11/23 07:22:48;;;;;;;10.03;4.10;;;10.40;99.90;;;;;;5041639;28;20494;-61
2023/11/23 07:25:17;;;;;;;8.40;4.30;;;10.40;99.90;;;;;;5039865;28;20470;-61
2023/11/23 07:27:45;;;;;;;6.23;3.90;;;10.40;99.90;;;;;;5040179;28;20921;-61
2023/11/23 07:30:14;;;;;;;10.50;4.80;;;10.40;99.90;;;;;;5040936;28;20554;-61
2023/11/23 07:32:43;;;;;;;9.23;4.97;;;10.40;99.90;;;;;;5040660;28;20467;-61
2023/11/23 07:35:12;;;;;;;8.83;4.57;;;10.40;99.90;;;;;;5038325;28;20494;-61
2023/11/23 07:37:40;;;;;;;7.80;4.20;;;10.40;99.90;;;;;;5039664;28;20482;-61
2023/11/23 07:40:13;;;;;;;10.53;4.40;;;10.50;99.90;;;;;;5040841;28;20697;-62
2023/11/23 07:42:43;;;;;;;12.47;4.67;;;10.40;99.90;;;;;;5040977;28;20497;-61
2023/11/23 07:45:12;;;;;;;9.07;4.73;;;10.50;99.90;;;;;;5040483;28;20479;-61
2023/11/23 07:47:43;;;;;;;9.20;4.80;;;10.50;99.90;;;;;;5040723;28;20475;-61
2023/11/23 07:50:15;;;;;;;10.00;4.80;;;10.50;99.90;;;;;;5041667;28;20472;-61
2023/11/23 07:52:43;;;;;;;11.07;5.77;;;10.50;99.90;;;;;;5036812;28;20569;-61
2023/11/23 07:55:12;;;;;;;8.93;4.30;;;10.50;99.90;;;;;;5039010;28;20498;-61
2023/11/23 07:57:40;;;;;;;6.23;3.93;;;10.60;99.90;;;;;;5041123;28;20878;-61
2023/11/23 08:00:09;;;;;;;9.50;4.03;;;10.60;99.90;;;;;;5042306;28;21115;-61
2023/11/23 08:02:37;;;;;;;9.97;3.50;;;10.60;99.90;;;;;;5040792;28;21013;-61
2023/11/23 08:05:09;;;;;;;7.17;3.37;;;10.60;99.90;;;;;;5040797;28;20473;-61
2023/11/23 08:07:37;;;;;;;7.70;3.90;;;10.60;99.90;;;;;;5038682;28;20494;-61
2023/11/23 08:10:12;;;;;;;13.20;4.33;;;10.60;99.90;;;;;;5039882;28;20503;-61
2023/11/23 08:12:40;;;;;;;9.23;3.63;;;10.70;99.90;;;;;;5038688;28;21080;-61
2023/11/23 08:15:10;;;;;;;10.73;4.27;;;10.70;99.90;;;;;;5039682;28;20495;-61
2023/11/23 08:17:38;;;;;;;9.73;3.63;;;10.70;99.90;;;;;;5039494;28;20482;-61
2023/11/23 08:20:13;;;;;;;5.90;3.53;;;10.70;99.90;;;;;;5039302;28;20485;-61
2023/11/23 08:22:41;;;;;;;6.23;3.40;;;10.70;99.90;;;;;;5035338;28;20477;-61
2023/11/23 08:25:10;;;;;;;9.60;3.30;;;10.70;99.90;;;;;;5039409;28;20538;-61
2023/11/23 08:27:38;;;;;;;5.77;2.70;;;10.80;99.90;;;;;;5039128;28;20483;-61
2023/11/23 08:30:07;;;;;;;15.57;3.30;;;10.80;99.90;;;;;;5037923;28;20551;-61
2023/11/23 08:32:35;;;;;;;7.20;3.03;;;10.80;99.90;;;;;;5040318;28;20470;-61
2023/11/23 08:35:04;;;;;;;9.17;2.93;;;10.80;99.90;;;;;;5039031;28;20563;-60
2023/11/23 08:37:33;;;;;;;7.27;3.27;;;10.80;99.90;;;;;;5036307;28;20934;-61
2023/11/23 08:40:01;;;;;;;7.17;3.20;;;10.80;99.90;;;;;;5039465;28;20477;-61
2023/11/23 08:42:29;;;;;;;6.00;3.07;;;10.80;99.90;;;;;;5039984;28;20466;-61
2023/11/23 08:44:57;;;;;;;8.97;3.10;;;10.80;99.90;;;;;;5040634;28;20990;-61
2023/11/23 08:47:25;;;;;;;8.73;3.50;;;10.80;99.90;;;;;;5039364;28;20565;-60
2023/11/23 08:49:53;;;;;;;6.50;3.90;;;10.80;99.90;;;;;;5038486;28;20478;-60
2023/11/23 08:52:21;;;;;;;7.10;3.40;;;10.80;99.90;;;;;;5039378;28;20489;-61
2023/11/23 08:54:51;;;;;;;9.17;3.50;;;10.90;99.90;;;;;;5038179;28;20526;-60
2023/11/23 08:57:19;;;;;;;9.13;3.83;;;10.90;99.90;;;;;;5040453;28;20501;-61
2023/11/23 08:59:47;;;;;;;8.33;3.60;;;10.90;99.90;;;;;;5032383;28;20471;-61
2023/11/23 09:02:15;;;;;;;7.27;3.63;;;10.90;99.90;;;;;;5038129;28;20565;-61
2023/11/23 09:04:48;;;;;;;8.87;3.23;;;10.90;99.90;;;;;;5038602;28;20498;-61
2023/11/23 09:07:17;;;;;;;8.37;3.50;;;10.90;99.90;;;;;;5036296;28;20490;-61
2023/11/23 09:09:45;;;;;;;7.37;3.17;;;10.90;99.90;;;;;;5036156;28;20587;-60
2023/11/23 09:12:15;;;;;;;9.47;3.33;;;10.90;99.90;;;;;;5039782;28;20475;-61
2023/11/23 09:14:44;;;;;;;8.90;4.67;;;10.90;99.90;;;;;;5035737;28;20494;-61
2023/11/23 09:17:17;;;;;;;6.30;3.37;;;10.90;99.90;;;;;;5038857;28;20560;-61
2023/11/23 09:19:46;;;;;;;10.23;3.90;;;10.90;99.90;;;;;;5038245;28;20470;-61
2023/11/23 09:22:14;;;;;;;7.90;3.60;;;10.90;99.90;;;;;;5039258;28;20478;-61
2023/11/23 09:24:42;;;;;;;7.50;3.60;;;10.90;99.90;;;;;;5037618;28;20490;-61
2023/11/23 09:27:11;;;;;;;6.47;3.13;;;10.90;99.90;;;;;;5037444;28;20473;-61
2023/11/23 09:29:40;;;;;;;6.90;3.00;;;10.90;99.90;;;;;;5036479;28;20478;-61
2023/11/23 09:32:09;;;;;;;5.77;3.03;;;11.00;99.90;;;;;;5039487;28;21107;-61
2023/11/23 09:34:38;;;;;;;8.63;3.10;;;11.00;99.90;;;;;;5038975;28;20578;-61
2023/11/23 09:37:06;;;;;;;6.33;2.73;;;11.00;99.90;;;;;;5034662;28;21002;-61
2023/11/23 09:39:35;;;;;;;7.30;3.10;;;11.00;99.90;;;;;;5031938;28;20474;-60
2023/11/23 09:42:05;;;;;;;11.50;4.43;;;11.00;99.90;;;;;;5037164;28;20601;-61
2023/11/23 09:44:36;;;;;;;6.03;3.03;;;11.00;99.90;;;;;;5036778;28;20494;-61
2023/11/23 09:47:07;;;;;;;7.30;3.07;;;11.10;99.90;;;;;;5039383;28;20573;-61
2023/11/23 09:49:37;;;;;;;11.07;3.20;;;11.10;99.90;;;;;;5038779;28;20497;-61
2023/11/23 09:52:07;;;;;;;6.23;2.50;;;11.10;99.90;;;;;;5039078;28;21001;-61
2023/11/23 09:54:35;;;;;;;8.80;3.07;;;11.10;99.90;;;;;;5037006;28;20576;-61
2023/11/23 09:57:04;;;;;;;7.70;3.10;;;11.10;99.90;;;;;;5039694;28;20498;-61
2023/11/23 09:59:32;;;;;;;5.73;3.30;;;11.10;99.90;;;;;;5038595;28;20509;-61
2023/11/23 10:02:04;;;;;;;6.43;2.53;;;11.10;99.90;;;;;;5039665;28;20481;-61
2023/11/23 10:04:35;;;;;;;7.43;3.00;;;11.20;99.90;;;;;;5034071;28;20561;-61
2023/11/23 10:07:05;;;;;;;9.10;2.97;;;11.20;99.90;;;;;;5038540;28;20522;-60
2023/11/23 10:09:35;;;;;;;7.40;2.63;;;11.20;99.90;;;;;;5034644;28;20955;-61
2023/11/23 10:12:03;;;;;;;6.83;2.70;;;11.20;99.90;;;;;;5038615;28;20475;-60
2023/11/23 10:14:31;;;;;;;12.17;3.10;;;11.20;99.90;;;;;;5037804;28;20490;-61
2023/11/23 10:16:59;;;;;;;5.13;2.47;;;11.30;99.90;;;;;;5037619;28;20493;-61
2023/11/23 10:19:27;;;;;;;5.50;2.90;;;11.30;99.90;;;;;;5038110;28;21532;-61
2023/11/23 10:21:59;;;;;;;4.93;2.57;;;11.30;99.90;;;;;;5036811;28;20474;-61
2023/11/23 10:24:28;;;;;;;8.87;3.43;;;11.30;99.90;;;;;;5034258;28;20581;-61
2023/11/23 10:26:56;;;;;;;5.90;2.67;;;11.30;99.90;;;;;;5036570;28;20467;-61
2023/11/23 10:29:28;;;;;;;6.80;2.73;;;11.30;99.90;;;;;;5034235;28;20567;-60
2023/11/23 10:31:59;;;;;;;7.90;3.60;;;11.40;99.90;;;;;;5037719;28;20543;-60
2023/11/23 10:34:28;;;;;;;7.50;4.40;;;11.40;99.90;;;;;;5034803;28;20490;-61
2023/11/23 10:36:58;;;;;;;7.13;2.43;;;11.40;99.90;;;;;;5037605;28;23949;-61
2023/11/23 10:39:27;;;;;;;5.97;2.80;;;11.50;99.90;;;;;;5038181;28;20561;-60
2023/11/23 10:41:57;;;;;;;10.93;2.97;;;11.50;99.90;;;;;;5039223;28;20464;-61
2023/11/23 10:44:28;;;;;;;9.20;2.60;;;11.50;99.90;;;;;;5036927;28;20509;-61
2023/11/23 10:46:59;;;;;;;6.07;2.80;;;11.50;99.90;;;;;;5038434;28;21802;-63
2023/11/23 10:49:27;;;;;;;5.03;2.47;;;11.60;99.90;;;;;;5037746;28;20479;-61
2023/11/23 10:51:56;;;;;;;4.67;2.33;;;11.60;99.90;;;;;;5038285;28;20556;-61
2023/11/23 10:54:25;;;;;;;7.07;2.30;;;11.60;99.90;;;;;;5036332;28;20592;-61
2023/11/23 10:56:57;;;;;;;4.40;2.03;;;11.70;99.90;;;;;;5042768;28;20959;-61
2023/11/23 10:59:29;;;;;;;5.67;2.60;;;11.70;99.90;;;;;;5041845;28;20588;-61
2023/11/23 11:01:57;;;;;;;10.80;3.10;;;11.70;99.90;;;;;;5042609;28;20836;-60
2023/11/23 11:04:29;;;;;;;8.93;2.80;;;11.70;99.90;;;;;;5040649;28;20864;-60
2023/11/23 11:06:58;;;;;;;8.87;2.87;;;11.80;99.90;;;;;;5042607;28;20462;-60
2023/11/23 11:09:28;;;;;;;6.70;2.83;;;11.80;99.90;;;;;;5036078;28;20483;-61
2023/11/23 11:12:00;;;;;;;6.20;2.53;;;11.70;99.90;;;;;;5039964;28;20466;-61
2023/11/23 11:14:32;;;;;;;5.57;2.60;;;11.80;99.90;;;;;;5040512;28;20582;-61
2023/11/23 11:17:04;;;;;;;6.30;2.83;;;11.80;99.90;;;;;;5042237;28;20470;-61
2023/11/23 11:19:44;;;;;;;9.43;3.10;;;11.80;99.90;;;;;;5039874;28;20894;-61
2023/11/23 11:22:13;;;;;;;4.93;2.50;;;11.80;99.90;;;;;;5040917;28;21057;-61
2023/11/23 11:24:44;;;;;;;6.20;2.40;;;11.80;99.90;;;;;;5036757;28;20529;-61
2023/11/23 11:27:13;;;;;;;9.53;2.40;;;11.80;99.90;;;;;;5038363;28;20475;-61
2023/11/23 11:29:49;;;;;;;9.63;3.03;;;11.80;99.90;;;;;;5038322;28;21022;-61
2023/11/23 11:32:21;;;;;;;7.40;2.73;;;11.90;99.90;;;;;;5040331;28;20467;-61
2023/11/23 11:35:00;;;;;;;4.47;2.20;;;11.90;99.90;;;;;;5040289;28;20490;-61
2023/11/23 11:37:31;;;;;;;8.00;2.83;;;11.90;99.90;;;;;;5037079;28;20471;-61
2023/11/23 11:40:01;;;;;;;7.47;2.93;;;11.90;99.90;;;;;;5040660;28;21019;-61
2023/11/23 11:42:30;;;;;;;10.03;2.77;;;11.90;99.90;;;;;;5040974;28;20484;-60
2023/11/23 11:44:59;;;;;;;4.93;2.50;;;11.90;99.90;;;;;;5038876;28;20470;-61
2023/11/23 11:47:27;;;;;;;8.13;3.13;;;11.90;99.90;;;;;;5036316;28;20568;-60
2023/11/23 11:49:58;;;;;;;6.57;2.90;;;11.90;99.90;;;;;;5040694;28;20516;-61
2023/11/23 11:52:26;;;;;;;10.20;3.00;;;11.90;99.90;;;;;;5042369;28;20865;-61
2023/11/23 11:54:55;;;;;;;4.03;2.40;;;11.90;99.90;;;;;;5037126;28;20509;-61
2023/11/23 11:57:25;;;;;;;6.50;2.70;;;11.90;99.90;;;;;;5039709;28;20565;-61
2023/11/23 11:59:53;;;;;;;6.00;3.40;;;11.80;99.90;;;;;;5041306;28;21020;-61
2023/11/23 12:02:21;;;;;;;5.20;2.63;;;11.90;99.90;;;;;;5041461;28;20462;-61
2023/11/23 12:04:58;;;;;;;7.50;2.73;;;11.80;99.90;;;;;;5040117;28;20500;-61
2023/11/23 12:07:26;;;;;;;6.00;2.30;;;11.80;99.90;;;;;;5040885;28;20547;-60
2023/11/23 12:09:55;;;;;;;7.10;2.70;;;11.90;99.90;;;;;;5037032;28;20471;-61
2023/11/23 12:12:25;;;;;;;8.60;2.80;;;11.90;99.90;;;;;;5039089;28;20558;-61
2023/11/23 12:14:56;;;;;;;7.10;2.80;;;11.80;99.90;;;;;;5038115;28;20561;-61
2023/11/23 12:17:25;;;;;;;4.70;2.33;;;11.80;99.90;;;;;;5039854;28;20474;-61
2023/11/23 12:19:54;;;;;;;8.23;2.47;;;11.80;99.90;;;;;;5035303;28;20487;-60
2023/11/23 12:22:25;;;;;;;8.23;2.70;;;11.80;99.90;;;;;;5041523;28;20467;-61
2023/11/23 12:24:54;;;;;;;5.57;2.60;;;11.80;99.90;;;;;;5037331;28;20470;-61
2023/11/23 12:27:22;;;;;;;5.97;2.50;;;11.80;99.90;;;;;;5039199;28;21009;-62
2023/11/23 12:29:51;;;;;;;4.97;2.60;;;11.80;99.90;;;;;;5041073;28;20462;-61
2023/11/23 12:32:20;;;;;;;5.80;2.20;;;11.80;99.90;;;;;;5040330;28;20478;-61
2023/11/23 12:34:48;;;;;;;7.90;2.67;;;11.80;99.90;;;;;;5039569;28;20533;-61
2023/11/23 12:37:16;;;;;;;9.97;2.60;;;11.70;99.90;;;;;;5041471;28;21047;-61
2023/11/23 12:39:49;;;;;;;9.13;2.50;;;11.80;99.90;;;;;;5039038;28;20490;-61
2023/11/23 12:42:17;;;;;;;6.83;2.40;;;11.80;99.90;;;;;;5039904;28;20494;-61
2023/11/23 12:44:46;;;;;;;6.73;2.80;;;11.70;99.90;;;;;;5039303;28;20500;-61
2023/11/23 12:47:15;;;;;;;7.50;2.50;;;11.70;99.90;;;;;;5037969;28;20462;-61
2023/11/23 12:49:43;;;;;;;7.83;2.80;;;11.70;99.90;;;;;;5038685;28;20459;-61